Saint Joseph, MO

4:57 AM CDT on August 04, 2015 (GMT -0500)
KMOSTJOS3 | | Change Station
CLOSE
Current Station
Personal Weather Station
Location: St Joseph, MO
Elevation: 965 ft
Nearby Weather Stations
Active Advisory: Flood Warning

Elev 965 ft 39.77 °N, 94.82 °W | Updated 7 minutes ago

Clear
Clear
71.2 °F
Feels Like 74 °F
N
0.0
Wind Variable Wind from SSW
Gusts 0.0 mph

Today
High -- | Low -- °F
--% Chance of Precip.
Yesterday
High -- | Low -- °F
Precip. -- in
6:20 AM 8:29 PM
Waning Gibbous, 79% visible
Pressure 29.94 in
Visibility 10.0 miles
Clouds Few 6000 ft
Heat Index 74 °F
Dew Point 61 °F
Humidity 69%
Rainfall 0.00 in
Snow Depth Not available.
UV 0 out of 12
Pollen 6.80 out of 12
Air Quality Not available.
Flu Activity Not available.
METAR KSTJ 040953Z AUTO 10007KT 10SM FEW060 22/19 A2996 RMK AO2 SLP136 T02220189 $

More Conditions Fewer Conditions

Pressure 29.94 in
Visibility 10.0 miles
Clouds Few 6000 ft
Heat Index 74 °F
Dew Point 61 °F
Humidity 69%
Rainfall 0.00 in
Snow Depth Not available.
UV 0 out of 12
Pollen 6.80 out of 12
Air Quality Not available.
Flu Activity Not available.
METAR KSTJ 040953Z AUTO 10007KT 10SM FEW060 22/19 A2996 RMK AO2 SLP136 T02220189 $

More Conditions Fewer Conditions

10-Day Weather Forecast

×

Almanac

Astronomy

Aug. 04, 2015 Rise Set
Actual Time
Civil Twilight
Nautical Twilight
Astronomical Twilight
Moon
Length of Visible Light
Length of Day
Tomorrow will be .
, % of the Moon is Illuminated

Today's Extremes

State Highs State Lows

Community

WunderPhotos

Upload Photos

1,843,880 photos uploaded!

WunderBlogs® & News

Nearby

Air Quality

  Air Quality AQ Index Pollutant
Not available.

Snow Depth

Station Depth Elevation

Earthquake Activity

City Distance Mag. Time & Date
Minimum magnitude displayed is 2.5.

Coastal Water Temperatures

Place Temperature

Stations

Nearby Weather Stations

Station Location Temp. Windchill Dew Point Humidity Wind Precip. Elev Updated Type
                   
Flood Warning
Statement as of 8:49 PM CDT on August 03, 2015

The National Weather Service in Pleasant Hill MO has issued a

* Flood Warning for
the Platte River near agency.
* Until Thursday morning.
* At 8:30 PM Monday the stage was 22.8 feet.
* Flood stage is 20.0 feet.
* Minor flooding is occurring and minor flooding is forecast.
* Forecast... the river will continue rising to near 23.4 feet by
early Tuesday morning. The river will fall below flood stage late
Wednesday morning.
* At 20.0 feet... low-lying areas east of agency begin to flood.

                       Latest
location fs stage day/time forecast

Platte River
agency 20 22.8 Mon 08 PM 23.4 early Tuesday morning


lat... Lon 3977 9480 3977 9471 3951 9464 3941 9464 3941 9472